createdAt,value
2022-11-15T00:00:22.287Z,100513.86
2022-11-15T00:03:08.261Z,100521.16
2022-11-15T00:05:54.143Z,100515.48
2022-11-15T00:08:40.138Z,100509.40
2022-11-15T00:11:25.672Z,100500.13
2022-11-15T00:14:11.531Z,100496.02
2022-11-15T00:16:57.115Z,100495.54
2022-11-15T00:19:42.648Z,100493.14
2022-11-15T00:22:34.603Z,100490.25
2022-11-15T00:25:20.288Z,100484.48
2022-11-15T00:28:05.975Z,100479.42
2022-11-15T00:30:51.812Z,100475.94
2022-11-15T00:33:37.600Z,100474.98
2022-11-15T00:36:23.057Z,100471.87
2022-11-15T00:39:08.819Z,100464.21
2022-11-15T00:41:54.659Z,100465.25
2022-11-15T00:44:40.546Z,100460.23
2022-11-15T00:47:26.077Z,100456.77
2022-11-15T00:50:15.185Z,100459.94
2022-11-15T00:53:01.365Z,100455.77
2022-11-15T00:55:47.840Z,100452.87
2022-11-15T00:58:33.812Z,100450.27
2022-11-15T01:01:19.492Z,100449.25
2022-11-15T01:04:05.564Z,100446.21
2022-11-15T01:06:51.453Z,100441.61
2022-11-15T01:09:37.267Z,100440.09
2022-11-15T01:12:23.336Z,100441.30
2022-11-15T01:15:09.359Z,100442.23
2022-11-15T01:17:55.960Z,100440.27
2022-11-15T01:20:43.365Z,100428.13
2022-11-15T01:23:29.264Z,100430.04
2022-11-15T01:26:16.784Z,100429.08
2022-11-15T01:29:02.593Z,100428.56
2022-11-15T01:31:48.231Z,100426.31
2022-11-15T01:34:34.194Z,100423.85
2022-11-15T01:37:20.343Z,100417.50
2022-11-15T01:40:06.879Z,100419.06
2022-11-15T01:42:52.150Z,100413.77
2022-11-15T01:45:38.011Z,100407.00
2022-11-15T01:48:33.553Z,100407.64
2022-11-15T01:51:21.386Z,100405.71
2022-11-15T01:54:13.523Z,100395.86
2022-11-15T01:57:05.275Z,100387.98
2022-11-15T01:59:51.652Z,100389.28
2022-11-15T02:02:37.543Z,100387.23
2022-11-15T02:05:23.612Z,100383.04
2022-11-15T02:08:09.758Z,100383.66
2022-11-15T02:10:55.954Z,100380.81
2022-11-15T02:13:41.562Z,100379.34
2022-11-15T02:16:48.265Z,100374.62
2022-11-15T02:19:34.001Z,100371.30
2022-11-15T02:22:36.433Z,100367.05
2022-11-15T02:26:20.022Z,100360.14
2022-11-15T02:29:21.145Z,100354.64
2022-11-15T02:32:11.438Z,100351.35
2022-11-15T02:35:41.258Z,100349.29
2022-11-15T02:38:58.152Z,100354.19
2022-11-15T02:42:35.291Z,100349.02
2022-11-15T02:45:30.680Z,100343.13
2022-11-15T02:48:18.285Z,100335.61
2022-11-15T02:51:05.198Z,100330.63
2022-11-15T02:53:50.919Z,100327.86
2022-11-15T02:56:36.826Z,100329.36
2022-11-15T02:59:29.165Z,100328.27
2022-11-15T03:02:37.048Z,100324.29
2022-11-15T03:05:36.454Z,100323.77
2022-11-15T03:08:31.484Z,100322.20
2022-11-15T03:11:21.086Z,100310.44
2022-11-15T03:14:15.750Z,100307.53
2022-11-15T03:17:11.490Z,100310.69
2022-11-15T03:20:00.004Z,100315.90
2022-11-15T03:22:48.046Z,100309.80
2022-11-15T03:25:35.955Z,100303.21
2022-11-15T03:28:27.583Z,100299.13
2022-11-15T03:31:34.980Z,100297.73
2022-11-15T03:34:35.533Z,100290.79
2022-11-15T03:37:26.032Z,100282.30
2022-11-15T03:40:12.058Z,100279.09
2022-11-15T03:43:11.712Z,100268.95
2022-11-15T03:46:02.672Z,100265.14
2022-11-15T03:48:53.349Z,100265.19
2022-11-15T03:51:39.779Z,100257.50
2022-11-15T03:54:25.487Z,100256.71
2022-11-15T03:57:11.353Z,100253.48
2022-11-15T03:59:56.807Z,100253.14
2022-11-15T04:02:42.515Z,100249.94
2022-11-15T04:05:28.510Z,100248.59
2022-11-15T04:08:14.120Z,100246.73
2022-11-15T04:11:02.258Z,100250.70
2022-11-15T04:13:48.068Z,100248.80
2022-11-15T04:16:33.585Z,100249.87
2022-11-15T04:19:37.649Z,100252.52
2022-11-15T04:22:41.483Z,100247.86
2022-11-15T04:25:32.083Z,100248.98
2022-11-15T04:28:18.252Z,100247.33
2022-11-15T04:31:03.965Z,100251.80
2022-11-15T04:33:49.495Z,100249.13
2022-11-15T04:36:53.947Z,100254.35
2022-11-15T04:39:41.270Z,100254.94
2022-11-15T04:42:27.134Z,100254.73
2022-11-15T04:45:13.125Z,100250.91
2022-11-15T04:47:59.502Z,100252.94
2022-11-15T04:50:45.232Z,100247.93
2022-11-15T04:53:30.910Z,100253.90
2022-11-15T04:56:16.635Z,100248.60
2022-11-15T04:59:02.449Z,100244.79
2022-11-15T05:01:48.466Z,100246.38
2022-11-15T05:04:34.563Z,100250.77
2022-11-15T05:07:20.140Z,100242.89
2022-11-15T05:10:06.548Z,100236.61
2022-11-15T05:12:52.129Z,100231.14
2022-11-15T05:15:37.560Z,100230.31
2022-11-15T05:18:23.986Z,100219.46
2022-11-15T05:21:12.101Z,100212.30
2022-11-15T05:23:58.093Z,100205.95
2022-11-15T05:26:44.085Z,100201.78
2022-11-15T05:29:30.026Z,100193.91
2022-11-15T05:32:15.921Z,100197.52
2022-11-15T05:35:01.581Z,100198.00
2022-11-15T05:37:47.699Z,100189.70
2022-11-15T05:40:35.609Z,100187.92
2022-11-15T05:43:21.987Z,100189.68
2022-11-15T05:46:07.984Z,100183.73
2022-11-15T05:48:54.816Z,100184.48
2022-11-15T05:51:42.549Z,100188.71
2022-11-15T05:54:28.592Z,100193.83
2022-11-15T05:57:14.490Z,100201.40
2022-11-15T06:00:00.037Z,100201.03
2022-11-15T06:02:45.702Z,100207.01
2022-11-15T06:05:31.819Z,100204.31
2022-11-15T06:08:17.259Z,100202.39
2022-11-15T06:11:07.389Z,100205.86
2022-11-15T06:13:53.303Z,100208.41
2022-11-15T06:16:38.786Z,100222.60
2022-11-15T06:19:24.983Z,100221.63
2022-11-15T06:22:10.978Z,100224.48
2022-11-15T06:24:59.207Z,100226.77
2022-11-15T06:27:55.908Z,100230.70
2022-11-15T06:30:41.677Z,100228.50
2022-11-15T06:33:27.252Z,100231.66
2022-11-15T06:36:17.875Z,100235.32
2022-11-15T06:39:05.222Z,100238.05
2022-11-15T06:41:51.072Z,100235.63
2022-11-15T06:44:37.167Z,100238.29
2022-11-15T06:47:23.037Z,100242.83
2022-11-15T06:50:09.355Z,100242.21
2022-11-15T06:52:55.706Z,100239.55
2022-11-15T06:55:41.639Z,100248.80
2022-11-15T06:58:27.640Z,100240.63
2022-11-15T07:01:14.290Z,100243.88
2022-11-15T07:04:00.192Z,100242.48
2022-11-15T07:06:50.548Z,100240.77
2022-11-15T07:09:36.371Z,100240.70
2022-11-15T07:12:22.391Z,100234.95
2022-11-15T07:15:08.599Z,100231.77
2022-11-15T07:17:53.941Z,100235.59
2022-11-15T07:20:40.904Z,100229.91
2022-11-15T07:23:26.693Z,100224.07
2022-11-15T07:26:12.455Z,100222.30
2022-11-15T07:28:58.422Z,100216.48
2022-11-15T07:31:44.489Z,100215.70
2022-11-15T07:34:30.406Z,100215.41
2022-11-15T07:37:17.885Z,100213.82
2022-11-15T07:40:04.119Z,100210.98
2022-11-15T07:42:56.887Z,100213.14
2022-11-15T07:45:44.436Z,100210.93
2022-11-15T07:48:42.830Z,100213.42
2022-11-15T07:51:29.479Z,100209.12
2022-11-15T07:54:14.906Z,100211.15
2022-11-15T07:57:06.701Z,100209.36
2022-11-15T07:59:53.241Z,100207.30
2022-11-15T08:02:39.449Z,100204.61
2022-11-15T08:05:25.333Z,100200.96
2022-11-15T08:08:12.186Z,100199.45
2022-11-15T08:11:01.439Z,100195.67
2022-11-15T08:13:47.401Z,100198.40
2022-11-15T08:16:33.346Z,100193.77
2022-11-15T08:19:19.030Z,100193.84
2022-11-15T08:22:04.916Z,100192.61
2022-11-15T08:24:50.886Z,100188.90
2022-11-15T08:27:36.957Z,100188.27
2022-11-15T08:30:23.324Z,100187.21
2022-11-15T08:33:13.118Z,100191.79
2022-11-15T08:36:02.149Z,100189.96
2022-11-15T08:38:47.892Z,100186.65
2022-11-15T08:41:37.338Z,100194.70
2022-11-15T08:44:23.505Z,100193.73
2022-11-15T08:47:12.648Z,100198.86
2022-11-15T08:49:58.563Z,100197.81
2022-11-15T08:52:44.380Z,100201.31
2022-11-15T08:55:29.882Z,100202.05
2022-11-15T08:58:15.336Z,100196.20
2022-11-15T09:01:01.362Z,100192.48
2022-11-15T09:03:47.280Z,100185.27
2022-11-15T09:06:33.060Z,100180.19
2022-11-15T09:09:18.570Z,100176.45
2022-11-15T09:12:04.616Z,100174.20
2022-11-15T09:14:50.063Z,100173.44
2022-11-15T09:17:35.746Z,100169.19
2022-11-15T09:20:22.003Z,100168.17
2022-11-15T09:23:07.962Z,100168.25
2022-11-15T09:26:00.253Z,100167.20
2022-11-15T09:28:45.936Z,100164.34
2022-11-15T09:31:32.340Z,100158.39
2022-11-15T09:34:18.053Z,100158.20
2022-11-15T09:37:04.021Z,100158.17
2022-11-15T09:39:49.625Z,100159.30
2022-11-15T09:42:51.182Z,100159.80
2022-11-15T09:45:52.445Z,100158.26
2022-11-15T09:49:00.363Z,100154.52
2022-11-15T09:51:51.010Z,100163.05
2022-11-15T09:57:40.052Z,100161.00
2022-11-15T10:00:46.917Z,100150.22
2022-11-15T10:03:16.647Z,100144.80
2022-11-15T10:05:46.765Z,100141.91
2022-11-15T10:08:26.049Z,100140.18
2022-11-15T10:11:22.592Z,100140.84
2022-11-15T10:13:51.609Z,100135.40
2022-11-15T10:16:51.450Z,100127.23
2022-11-15T10:19:54.542Z,100123.58
2022-11-15T10:22:31.122Z,100120.52
2022-11-15T10:25:04.408Z,100123.91
2022-11-15T10:27:31.506Z,100121.56
2022-11-15T10:29:58.505Z,100118.45
2022-11-15T10:32:26.500Z,100121.85
2022-11-15T10:34:53.849Z,100117.56
2022-11-15T10:37:30.427Z,100117.26
2022-11-15T10:40:26.685Z,100119.67
2022-11-15T10:43:13.638Z,100115.80
2022-11-15T10:45:40.854Z,100114.63
2022-11-15T10:48:26.331Z,100112.70
2022-11-15T10:50:55.506Z,100108.17
2022-11-15T10:53:28.084Z,100106.48
2022-11-15T10:55:58.997Z,100102.78
2022-11-15T10:58:33.429Z,100099.17
2022-11-15T11:01:46.391Z,100089.80
2022-11-15T11:04:14.083Z,100091.16
2022-11-15T11:06:51.531Z,100086.73
2022-11-15T11:09:38.743Z,100090.27
2022-11-15T11:12:10.833Z,100083.52
2022-11-15T11:14:40.525Z,100082.34
2022-11-15T11:17:36.856Z,100083.22
2022-11-15T11:20:09.870Z,100085.55
2022-11-15T11:23:03.567Z,100083.92
2022-11-15T11:25:39.191Z,100079.15
2022-11-15T11:28:12.229Z,100077.71
2022-11-15T11:30:42.376Z,100075.66
2022-11-15T11:33:23.534Z,100072.83
2022-11-15T11:36:25.240Z,100063.00
2022-11-15T11:38:56.147Z,100066.56
2022-11-15T11:41:52.616Z,100062.70
2022-11-15T11:44:39.684Z,100062.69
2022-11-15T11:47:20.427Z,100063.27
2022-11-15T11:49:57.613Z,100063.44
2022-11-15T11:52:34.849Z,100058.45
2022-11-15T11:55:17.210Z,100054.94
2022-11-15T11:57:53.269Z,100052.19
2022-11-15T12:00:23.033Z,100049.19
2022-11-15T12:03:12.893Z,100049.30
2022-11-15T12:05:42.805Z,100051.70
2022-11-15T12:08:28.866Z,100052.70
2022-11-15T12:11:02.018Z,100052.52
2022-11-15T12:13:35.746Z,100049.71
2022-11-15T12:16:13.799Z,100051.40
2022-11-15T12:18:45.769Z,100051.48
2022-11-15T12:21:34.954Z,100054.24
2022-11-15T12:24:08.058Z,100050.09
2022-11-15T12:26:46.704Z,100037.15
2022-11-15T12:29:22.059Z,100034.90
2022-11-15T12:31:52.765Z,100033.53
2022-11-15T12:34:25.344Z,100027.42
2022-11-15T12:36:52.951Z,100024.55
2022-11-15T12:39:20.594Z,100025.66
2022-11-15T12:41:56.601Z,100024.24
2022-11-15T12:44:32.688Z,100019.50
2022-11-15T12:47:04.421Z,100019.11
2022-11-15T12:49:31.442Z,100020.21
2022-11-15T12:51:58.469Z,100021.71
2022-11-15T12:54:25.512Z,100022.04
2022-11-15T12:57:05.009Z,100022.36
2022-11-15T13:00:05.411Z,100021.93
2022-11-15T13:02:48.542Z,100024.17
2022-11-15T13:05:15.715Z,100020.97
2022-11-15T13:07:42.786Z,100022.84
2022-11-15T13:10:12.905Z,100022.91
2022-11-15T13:12:42.638Z,100016.16
2022-11-15T13:15:12.656Z,100014.23
2022-11-15T13:17:44.006Z,100009.38
2022-11-15T13:20:16.620Z,100006.36
2022-11-15T13:22:53.441Z,100006.89
2022-11-15T13:25:49.109Z,100006.02
2022-11-15T13:28:16.109Z,100005.80
2022-11-15T13:30:56.952Z,100007.65
2022-11-15T13:33:35.690Z,100001.52
2022-11-15T13:36:10.300Z,100004.67
2022-11-15T13:38:39.884Z,99999.23
2022-11-15T13:41:21.374Z,100000.42
2022-11-15T13:43:49.999Z,99995.35
2022-11-15T13:46:19.739Z,99999.64
2022-11-15T13:48:51.983Z,99993.77
2022-11-15T13:51:28.912Z,99994.55
2022-11-15T13:54:05.077Z,99996.18
2022-11-15T13:56:35.093Z,99997.97
2022-11-15T13:59:10.616Z,100000.95
2022-11-15T14:01:38.411Z,100000.27
2022-11-15T14:04:05.537Z,100002.36
2022-11-15T14:06:33.065Z,100005.20
2022-11-15T14:09:12.514Z,100002.15
2022-11-15T14:11:52.069Z,100000.23
2022-11-15T14:14:21.933Z,99999.63
2022-11-15T14:17:00.743Z,99988.96
2022-11-15T14:19:27.733Z,99986.11
2022-11-15T14:22:15.878Z,99983.46
2022-11-15T14:24:46.166Z,99984.52
2022-11-15T14:27:28.122Z,99986.11
2022-11-15T14:29:55.835Z,99984.38
2022-11-15T14:32:27.087Z,99981.14
2022-11-15T14:35:03.273Z,99980.36
2022-11-15T14:37:35.630Z,99976.33
2022-11-15T14:40:04.832Z,99971.23
2022-11-15T14:42:32.074Z,99968.74
2022-11-15T14:44:59.353Z,99967.55
2022-11-15T14:47:26.521Z,99969.67
2022-11-15T14:49:53.605Z,99971.98
2022-11-15T14:52:20.620Z,99972.05
2022-11-15T14:54:47.666Z,99969.55
2022-11-15T14:57:14.713Z,99968.64
2022-11-15T14:59:41.761Z,99968.41
2022-11-15T15:02:22.711Z,99966.05
2022-11-15T15:04:50.941Z,99963.05
2022-11-15T15:07:19.074Z,99960.33
2022-11-15T15:09:46.650Z,99957.70
2022-11-15T15:12:16.638Z,99960.19
2022-11-15T15:14:43.764Z,99962.80
2022-11-15T15:17:11.222Z,99964.03
2022-11-15T15:19:38.345Z,99967.93
2022-11-15T15:22:05.879Z,99970.32
2022-11-15T15:24:33.159Z,99973.63
2022-11-15T15:27:00.285Z,99969.45
2022-11-15T15:29:28.964Z,99972.16
2022-11-15T15:31:55.994Z,99973.90
2022-11-15T15:34:23.154Z,99969.58
2022-11-15T15:36:50.313Z,99966.54
2022-11-15T15:39:17.339Z,99967.77
2022-11-15T15:41:44.366Z,99964.23
2022-11-15T15:44:11.535Z,99967.23
2022-11-15T15:46:38.575Z,99965.61
2022-11-15T15:49:05.585Z,99963.08
2022-11-15T15:51:32.664Z,99959.77
2022-11-15T15:53:59.660Z,99960.15
2022-11-15T15:56:26.730Z,99962.25
2022-11-15T15:58:53.828Z,99959.56
2022-11-15T16:01:20.903Z,99959.71
2022-11-15T16:03:48.059Z,99955.45
2022-11-15T16:06:36.350Z,99947.01
2022-11-15T16:09:20.223Z,99943.54
2022-11-15T16:11:48.167Z,99944.35
2022-11-15T16:14:15.314Z,99946.19
2022-11-15T16:16:42.387Z,99944.10
2022-11-15T16:19:11.532Z,99945.13
2022-11-15T16:21:38.540Z,99944.73
2022-11-15T16:24:05.808Z,99938.43
2022-11-15T16:26:35.981Z,99940.70
2022-11-15T16:29:03.280Z,99944.38
2022-11-15T16:31:30.363Z,99942.55
2022-11-15T16:33:57.496Z,99938.80
2022-11-15T16:36:30.238Z,99942.09
2022-11-15T16:38:59.056Z,99941.21
2022-11-15T16:41:26.762Z,99940.61
2022-11-15T16:43:54.513Z,99943.61
2022-11-15T16:46:26.165Z,99945.80
2022-11-15T16:48:56.934Z,99944.29
2022-11-15T16:51:24.156Z,99939.80
2022-11-15T16:53:51.407Z,99937.09
2022-11-15T16:56:27.133Z,99935.81
2022-11-15T16:58:55.563Z,99935.74
2022-11-15T17:01:26.778Z,99940.29
2022-11-15T17:03:54.932Z,99941.23
2022-11-15T17:06:23.235Z,99945.07
2022-11-15T17:08:50.334Z,99943.93
2022-11-15T17:11:19.928Z,99951.11
2022-11-15T17:13:48.809Z,99954.74
2022-11-15T17:16:18.375Z,99954.55
2022-11-15T17:18:45.854Z,99952.51
2022-11-15T17:21:21.360Z,99949.60
2022-11-15T17:23:48.829Z,99948.59
2022-11-15T17:26:35.068Z,99945.55
2022-11-15T17:29:04.685Z,99942.54
2022-11-15T17:31:33.888Z,99937.77
2022-11-15T17:34:02.595Z,99933.05
2022-11-15T17:36:29.955Z,99934.47
2022-11-15T17:38:59.741Z,99938.52
2022-11-15T17:41:28.154Z,99937.74
2022-11-15T17:44:00.145Z,99936.31
2022-11-15T17:46:28.753Z,99933.92
2022-11-15T17:48:57.085Z,99939.23
2022-11-15T17:51:24.377Z,99940.05
2022-11-15T17:53:51.908Z,99937.96
2022-11-15T17:56:21.161Z,99935.29
2022-11-15T17:58:54.555Z,99939.03
2022-11-15T18:01:26.012Z,99938.88
2022-11-15T18:03:54.028Z,99943.15
2022-11-15T18:06:22.646Z,99945.03
2022-11-15T18:08:51.914Z,99948.71
2022-11-15T18:11:22.267Z,99950.19
2022-11-15T18:13:54.534Z,99948.95
2022-11-15T18:16:25.433Z,99949.42
2022-11-15T18:18:53.416Z,99939.45
2022-11-15T18:21:26.303Z,99936.96
2022-11-15T18:23:55.834Z,99937.40
2022-11-15T18:26:27.203Z,99932.38
2022-11-15T18:28:57.616Z,99927.92
2022-11-15T18:31:31.012Z,99926.82
2022-11-15T18:34:01.262Z,99926.14
2022-11-15T18:36:30.632Z,99918.23
2022-11-15T18:39:02.601Z,99913.45
2022-11-15T18:41:31.001Z,99910.92
2022-11-15T18:44:00.931Z,99911.17
2022-11-15T18:46:32.705Z,99915.23
2022-11-15T18:49:02.002Z,99923.91
2022-11-15T18:51:31.034Z,99928.44
2022-11-15T18:54:01.110Z,99928.87
2022-11-15T18:56:30.115Z,99928.48
2022-11-15T18:58:59.743Z,99924.13
2022-11-15T19:01:29.277Z,99922.74
2022-11-15T19:03:58.476Z,99923.83
2022-11-15T19:06:27.775Z,99923.20
2022-11-15T19:08:56.568Z,99925.02
2022-11-15T19:11:28.863Z,99924.30
2022-11-15T19:13:58.010Z,99923.64
2022-11-15T19:16:28.142Z,99932.46
2022-11-15T19:18:56.897Z,99929.23
2022-11-15T19:21:25.477Z,99926.48
2022-11-15T19:23:54.300Z,99920.33
2022-11-15T19:26:22.949Z,99922.14
2022-11-15T19:28:55.428Z,99924.46
2022-11-15T19:31:24.010Z,99921.92
2022-11-15T19:33:52.903Z,99918.27
2022-11-15T19:36:26.980Z,99921.68
2022-11-15T19:38:54.501Z,99921.38
2022-11-15T19:41:23.776Z,99925.71
2022-11-15T19:43:51.769Z,99928.67
2022-11-15T19:46:23.731Z,99927.77
2022-11-15T19:48:51.856Z,99927.41
2022-11-15T19:51:23.974Z,99922.86
2022-11-15T19:53:56.321Z,99916.23
2022-11-15T19:56:23.947Z,99919.09
2022-11-15T19:58:53.055Z,99923.28
2022-11-15T20:01:25.905Z,99925.83
2022-11-15T20:03:55.161Z,99929.19
2022-11-15T20:06:26.800Z,99931.69
2022-11-15T20:08:54.122Z,99934.54
2022-11-15T20:11:21.276Z,99932.69
2022-11-15T20:13:48.629Z,99928.96
2022-11-15T20:16:21.001Z,99929.55
2022-11-15T20:18:49.386Z,99926.40
2022-11-15T20:21:17.101Z,99927.41
2022-11-15T20:23:44.812Z,99928.53
2022-11-15T20:26:12.581Z,99929.27
2022-11-15T20:28:40.393Z,99930.20
2022-11-15T20:31:08.619Z,99930.36
2022-11-15T20:33:35.688Z,99919.65
2022-11-15T20:36:06.733Z,99917.39
2022-11-15T20:38:34.900Z,99913.55
2022-11-15T20:41:02.234Z,99911.77
2022-11-15T20:43:29.232Z,99908.98
2022-11-15T20:45:56.486Z,99911.27
2022-11-15T20:48:23.515Z,99907.20
2022-11-15T20:50:50.659Z,99902.95
2022-11-15T20:53:19.754Z,99900.98
2022-11-15T20:55:49.645Z,99893.95
2022-11-15T20:58:17.443Z,99897.96
2022-11-15T21:00:46.214Z,99896.14
2022-11-15T21:03:14.576Z,99894.71
2022-11-15T21:05:43.884Z,99892.23
2022-11-15T21:08:12.438Z,99897.05
2022-11-15T21:10:59.659Z,99899.04
2022-11-15T21:13:27.117Z,99903.27
2022-11-15T21:15:58.065Z,99905.52
2022-11-15T21:18:25.641Z,99904.17
2022-11-15T21:20:53.846Z,99899.27
2022-11-15T21:23:21.683Z,99899.49
2022-11-15T21:25:52.445Z,99893.73
2022-11-15T21:28:19.569Z,99890.27
2022-11-15T21:30:56.166Z,99886.48
2022-11-15T21:33:24.083Z,99883.19
2022-11-15T21:35:51.671Z,99880.31
2022-11-15T21:38:18.896Z,99876.88
2022-11-15T21:40:46.154Z,99877.23
2022-11-15T21:43:13.199Z,99877.98
2022-11-15T21:45:40.296Z,99872.94
2022-11-15T21:48:08.471Z,99868.70
2022-11-15T21:50:35.563Z,99866.09
2022-11-15T21:53:02.670Z,99866.19
2022-11-15T21:55:29.744Z,99862.73
2022-11-15T21:57:56.767Z,99867.59
2022-11-15T22:00:42.527Z,99859.80
2022-11-15T22:03:09.705Z,99854.92
2022-11-15T22:05:36.973Z,99851.95
2022-11-15T22:08:04.191Z,99853.95
2022-11-15T22:10:31.207Z,99854.23
2022-11-15T22:12:58.337Z,99857.23
2022-11-15T22:15:25.310Z,99861.80
2022-11-15T22:17:58.032Z,99865.52
2022-11-15T22:23:12.694Z,99859.61
2022-11-15T22:25:39.825Z,99857.20
2022-11-15T22:28:06.816Z,99857.62
2022-11-15T22:30:33.867Z,99858.54
2022-11-15T22:33:00.991Z,99859.09
2022-11-15T22:35:28.377Z,99855.17
2022-11-15T22:37:55.654Z,99856.23
2022-11-15T22:40:22.810Z,99854.65
2022-11-15T22:42:49.950Z,99853.42
2022-11-15T22:45:19.687Z,99845.51
2022-11-15T22:47:48.991Z,99842.19
2022-11-15T22:50:16.587Z,99830.45
2022-11-15T22:52:43.880Z,99826.24
2022-11-15T22:55:11.541Z,99831.92
2022-11-15T22:57:38.590Z,99829.36
2022-11-15T23:00:12.089Z,99826.61
2022-11-15T23:02:39.161Z,99828.50
2022-11-15T23:05:06.594Z,99827.42
2022-11-15T23:07:34.478Z,99822.23
2022-11-15T23:10:20.403Z,99825.15
2022-11-15T23:13:06.265Z,99826.13
2022-11-15T23:15:52.287Z,99830.30
2022-11-15T23:18:19.666Z,99834.44
2022-11-15T23:20:47.003Z,99829.76
2022-11-15T23:23:14.094Z,99826.00
2022-11-15T23:25:41.245Z,99824.19
2022-11-15T23:28:08.446Z,99821.69
2022-11-15T23:30:54.949Z,99814.56
2022-11-15T23:33:41.303Z,99807.82
2022-11-15T23:36:08.863Z,99809.42
2022-11-15T23:38:37.628Z,99805.20
2022-11-15T23:41:06.056Z,99807.71
2022-11-15T23:43:33.181Z,99806.16
2022-11-15T23:46:01.689Z,99801.56
2022-11-15T23:48:29.021Z,99797.95
2022-11-15T23:50:56.221Z,99796.73
2022-11-15T23:53:23.930Z,99796.25
2022-11-15T23:55:58.097Z,99789.17
2022-11-15T23:58:25.146Z,99779.31
